Time;durP1;ratioP1;P1;durP2;ratioP2;P2;SDS_P1;SDS_P2;PMS_P1;PMS_P2;Temp;Humidity;BMP_temperature;BMP_pressure;BME280_temperature;BME280_humidity;BME280_pressure;Samples;Min_cycle;Max_cycle;Signal;HPM_P1;HPM_P2
2021/09/24 00:01:28;;;;;;;3.33;3.03;;;;;;;10.04;100.00;96770.56;5033295;28;20582;-75
2021/09/24 00:03:55;;;;;;;4.17;3.10;;;;;;;10.12;100.00;96775.97;5032878;28;20238;-75
2021/09/24 00:06:24;;;;;;;2.77;2.57;;;;;;;10.03;100.00;96779.44;5033252;28;20225;-75
2021/09/24 00:08:51;;;;;;;3.50;3.20;;;;;;;9.91;100.00;96778.78;5032882;28;20316;-75
2021/09/24 00:11:21;;;;;;;3.70;3.40;;;;;;;9.71;100.00;96777.16;5033402;28;20205;-75
2021/09/24 00:13:49;;;;;;;3.43;2.70;;;;;;;9.61;100.00;96771.09;5032960;28;20622;-75
2021/09/24 00:16:16;;;;;;;3.40;3.10;;;;;;;9.51;100.00;96766.69;5033020;28;20716;-75
2021/09/24 00:18:43;;;;;;;3.20;3.00;;;;;;;9.55;100.00;96755.91;5032156;28;20277;-75
2021/09/24 00:21:11;;;;;;;3.63;3.30;;;;;;;9.62;100.00;96768.31;5033054;28;20289;-75
2021/09/24 00:23:39;;;;;;;3.50;3.20;;;;;;;9.68;100.00;96764.31;5033000;28;20209;-75
2021/09/24 00:26:07;;;;;;;5.87;4.80;;;;;;;9.74;100.00;96769.00;5032825;28;20205;-75
2021/09/24 00:28:34;;;;;;;3.63;3.33;;;;;;;9.57;100.00;96756.59;5032429;28;20223;-75
2021/09/24 00:31:01;;;;;;;3.10;2.43;;;;;;;9.66;100.00;96756.56;5032856;28;20706;-75
2021/09/24 00:33:29;;;;;;;3.30;2.80;;;;;;;9.58;100.00;96764.31;5032464;28;20238;-75
2021/09/24 00:35:56;;;;;;;3.97;3.30;;;;;;;9.50;100.00;96749.28;5032693;28;20285;-75
2021/09/24 00:38:24;;;;;;;2.93;2.73;;;;;;;9.55;100.00;96759.34;5032183;28;20199;-75
2021/09/24 00:40:53;;;;;;;3.63;3.33;;;;;;;9.61;100.00;96750.09;5032876;28;20253;-75
2021/09/24 00:43:20;;;;;;;3.27;2.97;;;;;;;9.56;100.00;96749.69;5032317;28;20199;-75
2021/09/24 00:45:48;;;;;;;3.27;2.97;;;;;;;9.40;100.00;96743.22;5032817;28;20597;-75
2021/09/24 00:48:15;;;;;;;3.30;3.00;;;;;;;9.46;100.00;96747.09;5031951;28;20321;-75
2021/09/24 00:50:43;;;;;;;3.17;2.87;;;;;;;9.48;100.00;96742.50;5032382;28;20321;-75
2021/09/24 00:53:10;;;;;;;3.13;2.93;;;;;;;9.43;100.00;96744.75;5032019;28;20574;-75
2021/09/24 00:55:38;;;;;;;4.93;3.30;;;;;;;9.37;100.00;96745.28;5032580;28;20187;-76
2021/09/24 00:58:07;;;;;;;3.40;2.87;;;;;;;9.28;100.00;96741.69;5032150;28;20253;-75
2021/09/24 01:00:34;;;;;;;2.83;2.63;;;;;;;9.46;100.00;96739.22;5032469;28;20200;-76
2021/09/24 01:03:01;;;;;;;3.20;2.90;;;;;;;9.48;100.00;96738.09;5032298;28;20206;-76
2021/09/24 01:05:29;;;;;;;3.10;2.90;;;;;;;9.32;100.00;96734.38;5032403;28;20225;-75
2021/09/24 01:07:57;;;;;;;3.27;2.90;;;;;;;9.30;100.00;96729.28;5031666;28;20313;-75
2021/09/24 01:10:24;;;;;;;3.30;2.80;;;;;;;9.21;100.00;96719.63;5032353;28;20191;-75
2021/09/24 01:12:51;;;;;;;3.03;2.70;;;;;;;9.24;100.00;96719.34;5031876;28;20213;-76
2021/09/24 01:15:21;;;;;;;3.40;3.10;;;;;;;9.19;100.00;96711.06;5032003;28;20667;-75
2021/09/24 01:17:49;;;;;;;3.33;3.00;;;;;;;9.35;100.00;96720.97;5031619;28;20302;-75
2021/09/24 01:20:19;;;;;;;3.20;2.90;;;;;;;8.96;100.00;96711.34;5031939;28;20210;-75
2021/09/24 01:22:50;;;;;;;4.33;2.60;;;;;;;8.97;100.00;96699.91;5032046;28;20203;-75
2021/09/24 01:25:18;;;;;;;3.47;2.87;;;;;;;9.20;100.00;96708.31;5031998;28;20191;-75
2021/09/24 01:27:46;;;;;;;3.80;3.00;;;;;;;9.24;100.00;96700.97;5031956;28;20258;-75
2021/09/24 01:30:15;;;;;;;3.20;2.87;;;;;;;9.10;100.00;96693.53;5031620;28;20272;-75
2021/09/24 01:32:43;;;;;;;3.10;2.80;;;;;;;8.88;100.00;96686.78;5031737;28;20268;-75
2021/09/24 01:35:11;;;;;;;4.07;3.77;;;;;;;8.74;100.00;96688.03;5031742;28;20199;-75
2021/09/24 01:37:38;;;;;;;3.43;3.23;;;;;;;8.90;100.00;96684.84;5031963;28;20198;-75
2021/09/24 01:40:12;;;;;;;4.83;3.43;;;;;;;8.81;100.00;96686.50;5031686;28;20209;-75
2021/09/24 01:42:39;;;;;;;3.57;3.27;;;;;;;9.04;100.00;96689.69;5031359;28;20189;-75
2021/09/24 01:45:08;;;;;;;2.90;2.70;;;;;;;8.91;100.00;96689.16;5031691;28;20198;-75
2021/09/24 01:47:35;;;;;;;3.17;2.60;;;;;;;8.77;100.00;96696.44;5031721;28;20233;-75
2021/09/24 01:50:04;;;;;;;2.93;2.60;;;;;;;8.77;100.00;96693.81;5033471;28;20197;-75
2021/09/24 01:52:31;;;;;;;3.33;3.00;;;;;;;8.82;100.00;96680.28;5051065;28;20209;-75
2021/09/24 01:54:59;;;;;;;4.67;2.87;;;;;;;8.78;100.00;96687.59;5051332;28;20241;-76
2021/09/24 01:57:27;;;;;;;3.00;2.80;;;;;;;8.67;100.00;96690.38;5051451;28;20201;-76
2021/09/24 01:59:54;;;;;;;3.60;3.30;;;;;;;8.56;100.00;96685.25;5051629;28;20202;-76
2021/09/24 02:02:22;;;;;;;3.90;2.53;;;;;;;8.61;100.00;96685.66;5051192;28;20588;-75
2021/09/24 02:04:49;;;;;;;3.73;3.43;;;;;;;8.50;100.00;96684.00;5051338;28;20202;-76
2021/09/24 02:07:16;;;;;;;3.57;3.27;;;;;;;8.34;100.00;96678.41;5051142;28;20197;-76
2021/09/24 02:09:43;;;;;;;4.03;3.20;;;;;;;8.40;100.00;96667.44;5051111;28;20204;-76
2021/09/24 02:12:11;;;;;;;3.23;2.93;;;;;;;8.55;100.00;96660.00;5051035;28;20200;-75
2021/09/24 02:14:39;;;;;;;3.43;2.67;;;;;;;8.27;100.00;96661.56;5050998;28;20198;-75
2021/09/24 02:17:06;;;;;;;2.90;2.70;;;;;;;8.04;100.00;96655.75;5051240;28;20204;-75
2021/09/24 02:19:34;;;;;;;3.47;3.17;;;;;;;8.18;100.00;96658.00;5050950;28;20209;-76
2021/09/24 02:22:01;;;;;;;3.60;3.30;;;;;;;8.55;100.00;96665.22;5051252;28;20206;-75
2021/09/24 02:24:29;;;;;;;2.77;2.57;;;;;;;8.55;100.00;96663.44;5050639;28;20190;-75
2021/09/24 02:26:57;;;;;;;3.33;3.03;;;;;;;8.57;100.00;96665.94;5051536;28;20220;-75
2021/09/24 02:29:24;;;;;;;2.93;2.73;;;;;;;8.59;100.00;96664.03;5050979;28;20236;-75
2021/09/24 02:31:53;;;;;;;3.90;2.90;;;;;;;8.63;100.00;96659.34;5051210;28;20205;-75
2021/09/24 02:34:21;;;;;;;4.57;2.57;;;;;;;8.29;100.00;96655.25;5051340;28;20259;-75
2021/09/24 02:36:48;;;;;;;3.30;3.00;;;;;;;8.27;100.00;96657.16;5051130;28;20208;-75
2021/09/24 02:39:16;;;;;;;3.33;3.03;;;;;;;8.36;100.00;96652.09;5051283;28;20205;-75
2021/09/24 02:41:43;;;;;;;3.20;3.00;;;;;;;8.15;100.00;96658.25;5052687;28;20201;-75
2021/09/24 02:44:13;;;;;;;3.20;2.97;;;;;;;7.91;100.00;96657.78;5054484;28;20208;-75
2021/09/24 02:46:40;;;;;;;3.53;2.93;;;;;;;7.89;100.00;96641.34;5054645;28;20209;-75
2021/09/24 02:49:09;;;;;;;2.63;2.43;;;;;;;7.91;100.00;96640.28;5054381;28;20706;-75
2021/09/24 02:51:37;;;;;;;3.93;3.63;;;;;;;7.77;100.00;96644.06;5054278;28;20252;-76
2021/09/24 02:54:04;;;;;;;3.50;3.20;;;;;;;7.94;100.00;96650.47;5054164;28;20236;-75
2021/09/24 02:56:33;;;;;;;3.40;2.83;;;;;;;8.10;100.00;96642.97;5324981;22;20235;-76
2021/09/24 02:59:01;;;;;;;3.83;3.20;;;;;;;7.98;100.00;96635.34;5094145;28;20202;-75
2021/09/24 03:01:28;;;;;;;3.40;3.10;;;;;;;7.77;100.00;96640.63;5094426;28;20196;-75
2021/09/24 03:03:56;;;;;;;3.40;3.13;;;;;;;7.94;100.00;96640.00;5094416;28;20197;-75
2021/09/24 03:06:24;;;;;;;4.53;3.60;;;;;;;8.13;100.00;96644.47;5094591;28;20686;-76
2021/09/24 03:08:52;;;;;;;6.00;3.30;;;;;;;7.95;100.00;96651.31;5094611;28;20230;-75
2021/09/24 03:11:19;;;;;;;3.70;3.30;;;;;;;7.55;100.00;96649.47;5094871;28;20227;-76
2021/09/24 03:13:46;;;;;;;3.50;3.20;;;;;;;7.64;100.00;96643.47;5094044;28;20188;-76
2021/09/24 03:16:18;;;;;;;3.77;3.47;;;;;;;7.93;100.00;96646.22;5094455;28;20196;-76
2021/09/24 03:18:45;;;;;;;3.40;3.10;;;;;;;7.79;100.00;96657.88;5090987;28;20228;-76
2021/09/24 03:21:12;;;;;;;3.80;3.30;;;;;;;7.79;100.00;96657.88;5094248;28;20234;-76
2021/09/24 03:23:41;;;;;;;3.40;3.10;;;;;;;7.90;100.00;96656.09;5093409;28;20192;-75
2021/09/24 03:26:08;;;;;;;5.50;3.30;;;;;;;7.85;100.00;96661.72;5093863;28;20691;-75
2021/09/24 03:28:35;;;;;;;3.27;3.07;;;;;;;7.94;100.00;96665.34;5093898;28;20230;-75
2021/09/24 03:31:03;;;;;;;3.50;3.20;;;;;;;7.84;100.00;96663.53;5094197;28;20282;-76
2021/09/24 03:33:30;;;;;;;3.27;2.70;;;;;;;7.82;100.00;96654.97;5093580;28;20204;-75
2021/09/24 03:35:57;;;;;;;5.10;4.70;;;;;;;7.68;100.00;96650.09;5094026;28;20203;-76
2021/09/24 03:38:24;;;;;;;3.47;3.17;;;;;;;7.82;100.00;96647.13;5093797;28;20196;-76
2021/09/24 03:40:53;;;;;;;3.10;2.90;;;;;;;7.91;100.00;96649.91;5093981;28;20197;-76
2021/09/24 03:43:21;;;;;;;3.90;3.50;;;;;;;7.72;100.00;96656.72;5093539;28;20676;-75
2021/09/24 03:45:48;;;;;;;3.17;2.87;;;;;;;7.69;100.00;96653.53;5094094;28;20266;-76
2021/09/24 03:48:16;;;;;;;3.80;3.50;;;;;;;7.76;100.00;96654.66;5093519;28;20315;-76
2021/09/24 03:50:43;;;;;;;3.57;3.27;;;;;;;7.65;100.00;96654.75;5094079;28;20269;-76
2021/09/24 03:53:10;;;;;;;3.97;3.23;;;;;;;7.70;100.00;96663.06;5088964;28;20204;-75
2021/09/24 03:55:37;;;;;;;3.50;3.20;;;;;;;7.73;100.00;96658.38;5093230;28;20608;-76
2021/09/24 03:58:06;;;;;;;5.00;3.73;;;;;;;7.67;100.00;96652.84;5093260;28;20211;-76
2021/09/24 04:00:33;;;;;;;5.67;3.90;;;;;;;7.70;100.00;96649.97;5093265;28;20200;-76
2021/09/24 04:03:00;;;;;;;3.37;3.07;;;;;;;7.39;100.00;96640.31;5093270;28;20196;-76
2021/09/24 04:05:29;;;;;;;3.47;3.20;;;;;;;7.26;100.00;96637.06;5093346;28;20196;-76
2021/09/24 04:07:56;;;;;;;5.20;4.20;;;;;;;7.54;100.00;96638.19;5093170;28;20200;-76
2021/09/24 04:10:23;;;;;;;4.00;3.70;;;;;;;7.52;100.00;96645.34;5093389;28;20590;-76
2021/09/24 04:12:51;;;;;;;3.30;3.07;;;;;;;7.23;100.00;96634.72;5092847;28;20192;-75
2021/09/24 04:15:20;;;;;;;3.50;3.20;;;;;;;7.21;100.00;96628.00;5092959;28;20250;-76
2021/09/24 04:17:47;;;;;;;3.57;3.27;;;;;;;7.37;100.00;96626.53;5093213;28;20202;-75
2021/09/24 04:20:14;;;;;;;3.53;3.23;;;;;;;7.48;100.00;96632.66;5093125;28;20283;-75
2021/09/24 04:22:42;;;;;;;4.33;3.93;;;;;;;7.46;100.00;96630.19;5093155;28;20195;-75
2021/09/24 04:25:11;;;;;;;4.43;4.03;;;;;;;7.48;100.00;96625.66;5092377;28;20203;-75
2021/09/24 04:27:38;;;;;;;4.33;3.93;;;;;;;7.35;100.00;96628.47;5092748;28;20299;-75
2021/09/24 04:30:07;;;;;;;3.70;3.40;;;;;;;7.08;100.00;96631.63;5092946;28;20221;-76
2021/09/24 04:32:36;;;;;;;5.00;4.50;;;;;;;6.63;100.00;96624.00;5092666;28;20729;-76
2021/09/24 04:35:04;;;;;;;4.37;3.97;;;;;;;6.44;100.00;96621.22;5092625;28;20290;-76
2021/09/24 04:37:32;;;;;;;4.20;3.80;;;;;;;6.61;100.00;96607.63;5092667;28;20200;-76
2021/09/24 04:39:59;;;;;;;6.97;3.93;;;;;;;6.84;100.00;96605.72;5092769;28;20262;-76
2021/09/24 04:42:27;;;;;;;9.03;4.23;;;;;;;6.70;100.00;96608.66;5092976;28;20239;-76
2021/09/24 04:44:54;;;;;;;18.67;4.80;;;;;;;6.79;100.00;96600.06;5092460;28;20222;-76
2021/09/24 04:47:21;;;;;;;5.30;3.67;;;;;;;6.91;100.00;96601.66;5092563;28;20196;-76
2021/09/24 04:49:50;;;;;;;5.47;3.60;;;;;;;7.29;100.00;96600.22;5092526;28;20234;-76
2021/09/24 04:52:21;;;;;;;5.10;4.17;;;;;;;7.59;100.00;96593.34;5092235;28;20279;-76
2021/09/24 04:54:48;;;;;;;5.53;3.70;;;;;;;7.70;100.00;96605.50;5092915;28;20246;-75
2021/09/24 04:57:15;;;;;;;3.63;3.20;;;;;;;7.84;100.00;96603.34;5092193;28;20228;-76
2021/09/24 04:59:43;;;;;;;7.13;3.87;;;;;;;8.02;100.00;96603.50;5092710;28;20220;-76
2021/09/24 05:02:11;;;;;;;9.63;3.60;;;;;;;8.15;100.00;96599.84;5092135;28;20192;-76
2021/09/24 05:04:38;;;;;;;6.13;3.53;;;;;;;8.22;100.00;96601.75;5091911;28;20200;-76
2021/09/24 05:07:07;;;;;;;10.90;4.93;;;;;;;8.33;100.00;96600.81;5092327;28;20236;-76
2021/09/24 05:09:35;;;;;;;7.57;5.70;;;;;;;8.36;100.00;96591.84;5092402;28;20311;-76
2021/09/24 05:12:02;;;;;;;7.20;6.50;;;;;;;8.52;100.00;96590.38;5092457;28;20285;-76
2021/09/24 05:14:29;;;;;;;18.33;14.33;;;;;;;8.62;100.00;96590.34;5092123;28;20239;-75
2021/09/24 05:16:57;;;;;;;21.77;19.40;;;;;;;8.67;100.00;96585.56;5092508;28;20214;-76
2021/09/24 05:19:24;;;;;;;19.77;18.00;;;;;;;8.78;100.00;96584.56;5091993;28;20192;-75
2021/09/24 05:21:51;;;;;;;7.07;5.70;;;;;;;8.86;100.00;96586.50;5091915;28;20287;-76
2021/09/24 05:24:20;;;;;;;7.77;5.33;;;;;;;8.92;100.00;96580.69;5091972;28;20211;-76
2021/09/24 05:26:48;;;;;;;6.67;5.80;;;;;;;9.18;100.00;96584.38;5092046;28;20284;-76
2021/09/24 05:29:15;;;;;;;6.47;4.90;;;;;;;8.82;100.00;96586.75;5092204;28;20224;-76
2021/09/24 05:31:42;;;;;;;8.43;4.60;;;;;;;8.65;100.00;96582.22;5091733;28;20287;-76
2021/09/24 05:34:10;;;;;;;8.87;5.10;;;;;;;8.86;100.00;96586.50;5091836;28;20295;-76
2021/09/24 05:36:37;;;;;;;19.93;5.10;;;;;;;8.32;100.00;96583.44;5092021;28;20236;-76
2021/09/24 05:39:04;;;;;;;8.23;4.50;;;;;;;8.25;100.00;96572.69;5091641;28;20203;-76
2021/09/24 05:41:33;;;;;;;8.37;4.73;;;;;;;8.34;100.00;96571.03;5091958;28;20196;-76
2021/09/24 05:44:01;;;;;;;8.70;4.60;;;;;;;8.65;100.00;96577.00;5091735;28;20235;-76
2021/09/24 05:46:28;;;;;;;7.00;4.97;;;;;;;8.56;100.00;96583.06;5092220;28;20200;-76
2021/09/24 05:48:55;;;;;;;11.47;4.77;;;;;;;8.92;100.00;96572.81;5091556;28;20825;-76
2021/09/24 05:51:23;;;;;;;10.43;4.37;;;;;;;8.94;100.00;96584.84;5091954;28;20245;-76
2021/09/24 05:53:50;;;;;;;12.47;5.17;;;;;;;9.02;100.00;96584.94;5091939;28;20196;-76
2021/09/24 05:56:18;;;;;;;9.27;4.17;;;;;;;9.00;100.00;96579.00;5091618;28;20232;-76
2021/09/24 05:58:46;;;;;;;13.37;7.47;;;;;;;9.27;100.00;96582.69;5091597;28;20192;-76
2021/09/24 06:01:14;;;;;;;12.10;5.90;;;;;;;9.56;100.00;96577.34;5092086;28;20192;-76
2021/09/24 06:03:41;;;;;;;12.83;5.57;;;;;;;9.65;100.00;96586.94;5091404;28;20679;-76
2021/09/24 06:06:09;;;;;;;12.70;5.40;;;;;;;9.80;100.00;96589.09;5092072;28;20200;-76
2021/09/24 06:08:36;;;;;;;10.43;4.77;;;;;;;9.90;100.00;96577.56;5091401;28;20200;-76
2021/09/24 06:11:03;;;;;;;9.83;4.63;;;;;;;10.12;100.00;96576.34;5091746;28;20192;-76
2021/09/24 06:13:31;;;;;;;14.67;6.60;;;;;;;10.31;100.00;96579.84;5091247;28;20557;-76
2021/09/24 06:15:59;;;;;;;14.17;6.00;;;;;;;10.51;100.00;96589.25;5092767;28;20200;-76
2021/09/24 06:18:30;;;;;;;13.97;6.07;;;;;;;10.67;100.00;96591.19;5095321;28;20743;-76
2021/09/24 06:20:58;;;;;;;22.17;6.23;;;;;;;10.88;100.00;96593.50;5095514;28;20207;-76
2021/09/24 06:23:25;;;;;;;5.20;3.40;;;;;;;10.77;100.00;96620.00;5095261;28;20212;-76
2021/09/24 06:25:53;;;;;;;7.87;4.33;;;;;;;10.99;100.00;96616.94;5095171;28;20676;-76
2021/09/24 06:28:20;;;;;;;7.57;4.00;;;;;;;11.14;100.00;96618.00;5095209;28;20207;-76
2021/09/24 06:30:47;;;;;;;8.87;3.73;;;;;;;11.16;100.00;96616.06;5095507;28;20224;-76
2021/09/24 06:33:16;;;;;;;6.33;3.87;;;;;;;11.34;100.00;96615.19;5094817;28;20287;-76
2021/09/24 06:35:43;;;;;;;3.57;3.27;;;;;;;11.51;100.00;96619.59;5095190;28;20251;-76
2021/09/24 06:38:11;;;;;;;5.60;3.67;;;;;;;11.71;100.00;96625.47;5094946;28;20656;-76
2021/09/24 06:40:38;;;;;;;6.33;4.10;;;;;;;11.84;100.00;96598.72;5095446;28;20299;-76
2021/09/24 06:43:06;;;;;;;3.57;3.10;;;;;;;11.57;100.00;96597.06;5094929;28;20680;-76
2021/09/24 06:45:33;;;;;;;4.40;3.50;;;;;;;11.75;100.00;96599.63;5094809;28;20287;-76
2021/09/24 06:48:00;;;;;;;4.53;2.90;;;;;;;11.87;100.00;96601.03;5094818;28;20204;-76
2021/09/24 06:50:30;;;;;;;3.83;3.47;;;;;;;11.59;100.00;96606.47;5095209;28;20223;-75
2021/09/24 06:52:57;;;;;;;3.93;3.53;;;;;;;11.79;100.00;96617.59;5094536;28;20616;-76
2021/09/24 06:55:25;;;;;;;3.90;3.17;;;;;;;12.03;100.00;96616.09;5094654;28;20664;-76
2021/09/24 06:57:53;;;;;;;4.17;2.93;;;;;;;12.13;100.00;96622.88;5094688;28;20189;-76
2021/09/24 07:00:21;;;;;;;7.77;3.47;;;;;;;12.01;100.00;96629.41;5094751;28;20197;-75
2021/09/24 07:02:48;;;;;;;7.03;2.83;;;;;;;12.03;100.00;96626.63;5094835;28;20196;-76
2021/09/24 07:05:16;;;;;;;5.97;3.60;;;;;;;11.93;100.00;96636.44;5094698;28;20204;-76
2021/09/24 07:07:45;;;;;;;5.07;4.03;;;;;;;12.06;100.00;96629.75;5094734;28;20592;-77
2021/09/24 07:10:13;;;;;;;4.87;3.40;;;;;;;12.27;100.00;96633.78;5094537;28;20220;-75
2021/09/24 07:12:42;;;;;;;5.63;5.03;;;;;;;12.49;100.00;96635.81;5094603;28;20200;-76
2021/09/24 07:15:10;;;;;;;3.20;2.90;;;;;;;12.44;100.00;96635.47;5094569;28;20198;-76
2021/09/24 07:17:37;;;;;;;5.40;3.07;;;;;;;12.42;100.00;96639.25;5094559;28;20212;-76
2021/09/24 07:20:06;;;;;;;4.47;3.80;;;;;;;12.62;100.00;96656.44;5094292;28;20188;-76
2021/09/24 07:22:33;;;;;;;10.30;8.77;;;;;;;12.63;100.00;96659.91;5094421;28;20261;-76
2021/09/24 07:25:02;;;;;;;6.43;5.80;;;;;;;12.95;100.00;96659.13;5094321;28;20198;-76
2021/09/24 07:27:30;;;;;;;11.63;5.73;;;;;;;12.84;100.00;96653.16;5093574;28;20239;-76
2021/09/24 07:29:57;;;;;;;5.00;4.43;;;;;;;13.27;100.00;96663.63;5094436;28;20339;-76
2021/09/24 07:32:24;;;;;;;2.80;2.60;;;;;;;13.67;100.00;96667.22;5094235;28;20234;-76
2021/09/24 07:34:52;;;;;;;5.43;5.00;;;;;;;13.71;100.00;96665.88;5093862;28;20200;-76
2021/09/24 07:37:20;;;;;;;3.73;3.43;;;;;;;13.81;100.00;96661.22;5094236;28;20572;-76
2021/09/24 07:39:47;;;;;;;4.07;3.67;;;;;;;14.11;100.00;96656.19;5093925;28;20287;-76
2021/09/24 07:42:16;;;;;;;4.73;4.43;;;;;;;13.65;100.00;96656.81;5093876;28;20202;-76
2021/09/24 07:44:43;;;;;;;3.60;3.30;;;;;;;13.83;100.00;96659.25;5094120;28;20635;-76
2021/09/24 07:47:11;;;;;;;5.43;4.17;;;;;;;14.05;100.00;96644.47;5093567;28;20676;-76
2021/09/24 07:49:38;;;;;;;3.17;2.97;;;;;;;14.08;100.00;96640.69;5093881;28;20224;-76
2021/09/24 07:52:06;;;;;;;4.40;4.00;;;;;;;14.26;100.00;96655.28;5093719;28;20207;-76
2021/09/24 07:54:34;;;;;;;4.23;3.67;;;;;;;14.74;100.00;96653.41;5093557;28;20189;-76
2021/09/24 07:57:01;;;;;;;6.03;3.50;;;;;;;15.16;100.00;96656.59;5093252;28;20263;-76
2021/09/24 07:59:30;;;;;;;9.40;3.80;;;;;;;14.81;100.00;96658.81;5093418;28;20192;-76
2021/09/24 08:01:57;;;;;;;3.50;3.10;;;;;;;14.98;100.00;96663.00;5093509;28;20203;-76
2021/09/24 08:04:24;;;;;;;3.13;2.80;;;;;;;15.52;100.00;96670.03;5093061;28;20196;-76
2021/09/24 08:06:51;;;;;;;4.00;3.07;;;;;;;15.78;100.00;96674.13;5093792;28;20595;-76
2021/09/24 08:09:19;;;;;;;3.53;3.10;;;;;;;15.99;100.00;96671.56;5093425;28;20298;-76
2021/09/24 08:11:46;;;;;;;4.03;2.53;;;;;;;16.04;100.00;96668.41;5093411;28;20208;-76
2021/09/24 08:14:14;;;;;;;3.93;2.70;;;;;;;16.07;100.00;96668.84;5092917;28;20193;-76
2021/09/24 08:16:43;;;;;;;3.23;2.97;;;;;;;15.80;100.00;96678.25;5093572;28;20204;-76
2021/09/24 08:19:10;;;;;;;4.00;2.73;;;;;;;15.99;100.00;96665.44;5093382;28;20228;-76
2021/09/24 08:21:37;;;;;;;4.57;2.87;;;;;;;16.70;100.00;96649.81;5093206;28;20196;-76
2021/09/24 08:24:05;;;;;;;10.97;4.73;;;;;;;17.21;100.00;96645.22;5092684;28;20196;-76
2021/09/24 08:26:33;;;;;;;3.30;3.00;;;;;;;17.15;100.00;96643.38;5093103;28;20203;-76
2021/09/24 08:29:00;;;;;;;3.50;3.20;;;;;;;17.57;100.00;96633.69;5092900;28;20197;-76
2021/09/24 08:31:27;;;;;;;4.77;3.93;;;;;;;18.20;100.00;96621.19;5092975;28;20217;-76
2021/09/24 08:33:57;;;;;;;7.37;3.37;;;;;;;18.30;100.00;96620.84;5092820;28;20293;-76
2021/09/24 08:36:24;;;;;;;4.80;3.27;;;;;;;18.81;100.00;96622.25;5092998;28;20278;-76
2021/09/24 08:38:52;;;;;;;3.93;3.20;;;;;;;18.96;100.00;96614.91;5092307;28;20579;-76
2021/09/24 08:41:23;;;;;;;3.87;3.57;;;;;;;19.21;100.00;96612.47;5092842;28;20206;-77
2021/09/24 08:43:50;;;;;;;3.30;3.00;;;;;;;19.35;100.00;96599.97;5092452;28;20200;-76
2021/09/24 08:46:18;;;;;;;4.07;3.30;;;;;;;19.39;100.00;96611.84;5092941;28;20283;-77
2021/09/24 08:48:46;;;;;;;3.90;3.43;;;;;;;19.02;100.00;96606.13;5092529;28;20204;-77
2021/09/24 08:51:15;;;;;;;5.93;3.10;;;;;;;19.28;100.00;96601.81;5092873;28;20223;-76
2021/09/24 08:53:42;;;;;;;3.50;3.20;;;;;;;18.97;100.00;96606.69;5092233;28;20292;-77
2021/09/24 08:56:10;;;;;;;3.00;2.77;;;;;;;18.98;100.00;96604.84;5092450;28;20243;-77
2021/09/24 08:58:37;;;;;;;3.37;3.07;;;;;;;18.90;100.00;96602.41;5092430;28;20203;-76
2021/09/24 09:01:05;;;;;;;3.10;2.83;;;;;;;19.35;100.00;96600.78;5092283;28;20196;-76
2021/09/24 09:03:38;;;;;;;4.40;3.30;;;;;;;20.17;100.00;96595.94;5092314;28;20207;-77
2021/09/24 09:06:06;;;;;;;3.20;2.90;;;;;;;19.52;100.00;96598.53;5092443;28;20187;-76
2021/09/24 09:08:35;;;;;;;3.50;3.20;;;;;;;19.82;100.00;96590.91;5092310;28;20231;-76
2021/09/24 09:11:04;;;;;;;6.50;2.93;;;;;;;20.01;100.00;96583.88;5092295;28;20232;-76
2021/09/24 09:13:33;;;;;;;5.53;4.23;;;;;;;19.11;100.00;96594.22;5092208;28;20583;-76
2021/09/24 09:16:04;;;;;;;8.77;5.13;;;;;;;18.71;100.00;96593.34;5092310;28;20605;-76
2021/09/24 09:18:33;;;;;;;8.27;5.27;;;;;;;18.58;100.00;96596.78;5092209;28;20220;-76
2021/09/24 09:21:02;;;;;;;7.33;6.00;;;;;;;18.79;100.00;96595.00;5092560;28;20196;-76
2021/09/24 09:23:30;;;;;;;6.37;5.00;;;;;;;19.19;100.00;96591.38;5092350;28;20199;-76
2021/09/24 09:26:01;;;;;;;7.93;5.00;;;;;;;18.79;100.00;96589.69;5092120;28;20200;-76
2021/09/24 09:28:35;;;;;;;6.40;5.13;;;;;;;18.99;100.00;96587.88;5092106;28;20620;-76
2021/09/24 09:31:03;;;;;;;7.20;5.63;;;;;;;18.83;100.00;96594.41;5092300;28;20208;-76
2021/09/24 09:33:36;;;;;;;11.23;5.33;;;;;;;18.77;100.00;96582.72;5092184;28;20295;-76
2021/09/24 09:36:04;;;;;;;5.57;4.77;;;;;;;19.01;100.00;96583.97;5092152;28;20196;-76
2021/09/24 09:38:34;;;;;;;5.73;4.67;;;;;;;19.64;100.00;96580.06;5091632;28;20196;-76
2021/09/24 09:41:06;;;;;;;9.37;8.57;;;;;;;20.42;100.00;96567.50;5092043;28;20176;-76
2021/09/24 09:43:36;;;;;;;4.23;3.93;;;;;;;20.41;100.00;96579.22;5091764;28;20655;-76
2021/09/24 09:46:06;;;;;;;5.10;4.60;;;;;;;20.83;100.00;96568.13;5091945;28;20267;-76
2021/09/24 09:48:34;;;;;;;6.73;5.10;;;;;;;20.31;100.00;96565.50;5091444;28;20200;-76
2021/09/24 09:51:01;;;;;;;5.90;3.90;;;;;;;20.00;100.00;96565.44;5094526;28;20604;-76
2021/09/24 09:53:29;;;;;;;4.30;3.93;;;;;;;20.39;100.00;96569.78;5095876;28;20570;-76
2021/09/24 09:55:59;;;;;;;4.50;3.70;;;;;;;21.12;100.00;96575.50;5095797;28;20267;-76
2021/09/24 09:58:30;;;;;;;4.40;4.00;;;;;;;21.56;100.00;96560.34;5095574;28;20279;-76
2021/09/24 10:01:08;;;;;;;5.57;3.97;;;;;;;21.04;100.00;96566.94;5096295;28;20200;-76
2021/09/24 10:03:41;;;;;;;6.30;3.63;;;;;;;20.99;100.00;96564.09;5095714;28;20181;-76
2021/09/24 10:06:23;;;;;;;5.20;3.67;;;;;;;21.25;100.00;96560.41;5095874;28;20696;-76
2021/09/24 10:08:55;;;;;;;3.67;3.33;;;;;;;21.30;100.00;96544.50;5095977;28;20279;-76
2021/09/24 10:11:30;;;;;;;5.03;3.37;;;;;;;21.56;100.00;96554.19;5095973;28;20220;-76
2021/09/24 10:14:01;;;;;;;3.13;2.67;;;;;;;21.47;100.00;96550.16;5095782;28;20219;-76
2021/09/24 10:16:30;;;;;;;3.33;3.03;;;;;;;21.76;100.00;96538.75;5095480;28;20187;-76
2021/09/24 10:18:57;;;;;;;3.90;3.20;;;;;;;21.40;100.00;96544.84;5095726;28;20203;-76
2021/09/24 10:21:25;;;;;;;6.97;3.57;;;;;;;21.46;100.00;96543.97;5095883;28;20194;-77
2021/09/24 10:23:52;;;;;;;3.60;2.93;;;;;;;21.26;100.00;96543.31;5095021;28;20287;-77
2021/09/24 10:26:26;;;;;;;4.20;3.90;;;;;;;22.12;100.00;96517.53;5095484;28;20249;-77
2021/09/24 10:28:58;;;;;;;5.10;2.93;;;;;;;22.07;100.00;96519.03;5095241;28;20227;-77
2021/09/24 10:31:29;;;;;;;3.87;2.47;;;;;;;21.99;100.00;96508.63;5095284;28;20208;-77
2021/09/24 10:34:00;;;;;;;3.30;2.37;;;;;;;21.75;100.00;96507.69;5094995;28;20671;-77
2021/09/24 10:36:48;;;;;;;2.87;2.67;;;;;;;20.98;100.00;96512.50;5095360;28;20275;-77
2021/09/24 10:39:35;;;;;;;3.10;2.90;;;;;;;21.25;100.00;96504.25;5095079;28;20275;-77
2021/09/24 10:42:40;;;;;;;3.03;2.43;;;;;;;21.98;100.00;96500.81;5094894;28;20200;-77
2021/09/24 10:45:16;;;;;;;2.00;1.90;;;;;;;22.15;100.00;96503.75;5095176;28;20184;-76
2021/09/24 10:48:13;;;;;;;2.00;1.90;;;;;;;21.86;100.00;96495.44;5094903;28;20180;-76
2021/09/24 10:51:04;;;;;;;2.80;2.50;;;;;;;22.08;100.00;96503.78;5079477;28;20216;-76
2021/09/24 10:53:43;;;;;;;2.13;2.03;;;;;;;22.15;100.00;96493.84;5094652;28;20191;-77
2021/09/24 10:56:59;;;;;;;2.60;2.40;;;;;;;22.36;100.00;96476.47;5094757;28;20243;-77
2021/09/24 10:59:31;;;;;;;2.30;2.20;;;;;;;21.70;100.00;96474.63;5032419;28;20642;-76
2021/09/24 11:01:59;;;;;;;2.50;2.30;;;;;;;22.28;100.00;96458.06;5031606;28;20191;-77
2021/09/24 11:04:45;;;;;;;2.30;2.10;;;;;;;22.09;100.00;96449.22;5032322;28;20198;-77
2021/09/24 11:07:31;;;;;;;2.40;2.30;;;;;;;22.16;100.00;96443.78;5032489;28;20191;-76
2021/09/24 11:09:59;;;;;;;2.00;1.90;;;;;;;22.60;100.00;96431.81;5032510;28;20204;-77
2021/09/24 11:12:27;;;;;;;2.17;1.97;;;;;;;23.17;100.00;96421.41;5031895;28;20289;-77
2021/09/24 11:15:09;;;;;;;1.97;1.87;;;;;;;23.74;100.00;96428.78;5032342;28;20202;-77
2021/09/24 11:17:46;;;;;;;2.30;2.10;;;;;;;23.39;100.00;96424.28;5032128;28;20216;-77
2021/09/24 11:20:36;;;;;;;3.47;2.30;;;;;;;23.29;100.00;96432.09;5032314;28;20229;-77
2021/09/24 11:23:32;;;;;;;3.57;2.20;;;;;;;23.31;100.00;96438.06;5031957;28;20294;-77
2021/09/24 11:26:14;;;;;;;2.27;2.10;;;;;;;22.75;100.00;96442.06;5032100;28;20285;-77
2021/09/24 11:28:43;;;;;;;2.07;1.97;;;;;;;22.14;100.00;96432.47;5031986;28;20195;-77
2021/09/24 11:31:11;;;;;;;2.27;2.07;;;;;;;21.67;100.00;96434.94;5090323;28;20224;-76
2021/09/24 11:33:45;;;;;;;2.43;2.23;;;;;;;22.38;100.00;96433.41;5093977;28;20228;-76
2021/09/24 11:36:14;;;;;;;2.30;2.10;;;;;;;22.68;100.00;96431.47;5093930;28;20198;-77
2021/09/24 11:38:42;;;;;;;2.27;2.17;;;;;;;22.85;100.00;96445.00;5093928;28;20228;-77